sensor_id;sensor_type;location;lat;lon;timestamp;temperature;humidity
42147;DHT22;27815;43.410;11.852;2022-09-13T00:02:33;19.90;60.30
42147;DHT22;27815;43.410;11.852;2022-09-13T00:06:36;19.90;60.70
42147;DHT22;27815;43.410;11.852;2022-09-13T00:10:41;19.80;61.00
42147;DHT22;27815;43.410;11.852;2022-09-13T00:14:44;19.70;61.10
42147;DHT22;27815;43.410;11.852;2022-09-13T00:18:47;19.50;61.50
42147;DHT22;27815;43.410;11.852;2022-09-13T00:22:50;19.50;61.90
42147;DHT22;27815;43.410;11.852;2022-09-13T00:26:53;19.40;61.80
42147;DHT22;27815;43.410;11.852;2022-09-13T00:31:00;19.30;62.20
42147;DHT22;27815;43.410;11.852;2022-09-13T00:35:04;19.20;62.20
42147;DHT22;27815;43.410;11.852;2022-09-13T00:39:08;19.20;62.30
42147;DHT22;27815;43.410;11.852;2022-09-13T00:43:36;19.10;62.30
42147;DHT22;27815;43.410;11.852;2022-09-13T00:51:51;18.90;63.20
42147;DHT22;27815;43.410;11.852;2022-09-13T00:56:21;18.90;63.60
42147;DHT22;27815;43.410;11.852;2022-09-13T01:00:26;18.80;62.70
42147;DHT22;27815;43.410;11.852;2022-09-13T01:04:31;18.80;63.40
42147;DHT22;27815;43.410;11.852;2022-09-13T01:08:36;18.80;63.60
42147;DHT22;27815;43.410;11.852;2022-09-13T01:13:10;18.70;63.40
42147;DHT22;27815;43.410;11.852;2022-09-13T01:17:16;18.60;62.60
42147;DHT22;27815;43.410;11.852;2022-09-13T01:30:51;18.50;63.50
42147;DHT22;27815;43.410;11.852;2022-09-13T01:35:46;18.50;64.00
42147;DHT22;27815;43.410;11.852;2022-09-13T01:45:00;18.30;62.80
42147;DHT22;27815;43.410;11.852;2022-09-13T01:49:13;18.30;62.90
42147;DHT22;27815;43.410;11.852;2022-09-13T01:57:42;18.40;64.00
42147;DHT22;27815;43.410;11.852;2022-09-13T02:02:01;18.40;63.70
42147;DHT22;27815;43.410;11.852;2022-09-13T02:06:11;18.40;63.80
42147;DHT22;27815;43.410;11.852;2022-09-13T02:10:28;18.40;63.80
42147;DHT22;27815;43.410;11.852;2022-09-13T02:14:39;18.40;63.80
42147;DHT22;27815;43.410;11.852;2022-09-13T02:18:50;18.30;64.20
42147;DHT22;27815;43.410;11.852;2022-09-13T02:22:57;18.30;64.30
42147;DHT22;27815;43.410;11.852;2022-09-13T02:27:19;18.20;64.40
42147;DHT22;27815;43.410;11.852;2022-09-13T02:31:53;18.10;64.20
42147;DHT22;27815;43.410;11.852;2022-09-13T02:36:04;18.00;64.20
42147;DHT22;27815;43.410;11.852;2022-09-13T02:40:15;17.80;65.50
42147;DHT22;27815;43.410;11.852;2022-09-13T02:44:31;17.70;65.80
42147;DHT22;27815;43.410;11.852;2022-09-13T02:57:05;17.50;66.10
42147;DHT22;27815;43.410;11.852;2022-09-13T03:01:11;17.40;66.50
42147;DHT22;27815;43.410;11.852;2022-09-13T03:05:15;17.30;66.70
42147;DHT22;27815;43.410;11.852;2022-09-13T03:09:19;17.20;66.90
42147;DHT22;27815;43.410;11.852;2022-09-13T03:17:59;17.10;66.80
42147;DHT22;27815;43.410;11.852;2022-09-13T03:22:18;17.00;67.90
42147;DHT22;27815;43.410;11.852;2022-09-13T03:26:41;17.00;67.90
42147;DHT22;27815;43.410;11.852;2022-09-13T03:30:54;17.00;68.50
42147;DHT22;27815;43.410;11.852;2022-09-13T03:43:58;17.10;68.00
42147;DHT22;27815;43.410;11.852;2022-09-13T03:48:04;17.00;68.20
42147;DHT22;27815;43.410;11.852;2022-09-13T03:52:08;16.90;68.30
42147;DHT22;27815;43.410;11.852;2022-09-13T03:56:16;16.90;68.50
42147;DHT22;27815;43.410;11.852;2022-09-13T04:00:20;16.90;68.90
42147;DHT22;27815;43.410;11.852;2022-09-13T04:04:22;16.90;68.50
42147;DHT22;27815;43.410;11.852;2022-09-13T04:08:25;16.90;68.60
42147;DHT22;27815;43.410;11.852;2022-09-13T04:12:28;16.80;68.70
42147;DHT22;27815;43.410;11.852;2022-09-13T04:16:32;16.80;68.90
42147;DHT22;27815;43.410;11.852;2022-09-13T04:20:36;16.80;68.80
42147;DHT22;27815;43.410;11.852;2022-09-13T04:24:38;16.80;68.70
42147;DHT22;27815;43.410;11.852;2022-09-13T04:28:42;16.80;68.80
42147;DHT22;27815;43.410;11.852;2022-09-13T04:32:44;16.70;68.60
42147;DHT22;27815;43.410;11.852;2022-09-13T04:36:48;16.70;68.60
42147;DHT22;27815;43.410;11.852;2022-09-13T04:40:55;16.80;68.70
42147;DHT22;27815;43.410;11.852;2022-09-13T04:44:58;16.80;68.60
42147;DHT22;27815;43.410;11.852;2022-09-13T04:49:01;16.80;68.30
42147;DHT22;27815;43.410;11.852;2022-09-13T04:53:04;16.70;68.60
42147;DHT22;27815;43.410;11.852;2022-09-13T04:57:07;16.60;68.90
42147;DHT22;27815;43.410;11.852;2022-09-13T05:01:10;16.60;69.10
42147;DHT22;27815;43.410;11.852;2022-09-13T05:05:13;16.60;69.30
42147;DHT22;27815;43.410;11.852;2022-09-13T05:09:16;16.70;69.30
42147;DHT22;27815;43.410;11.852;2022-09-13T05:13:19;16.80;69.20
42147;DHT22;27815;43.410;11.852;2022-09-13T05:17:22;16.90;69.20
42147;DHT22;27815;43.410;11.852;2022-09-13T05:21:25;16.90;69.00
42147;DHT22;27815;43.410;11.852;2022-09-13T05:25:29;17.00;69.10
42147;DHT22;27815;43.410;11.852;2022-09-13T05:29:32;17.00;68.90
42147;DHT22;27815;43.410;11.852;2022-09-13T05:33:37;17.10;68.70
42147;DHT22;27815;43.410;11.852;2022-09-13T05:37:41;17.00;69.00
42147;DHT22;27815;43.410;11.852;2022-09-13T05:41:44;17.00;69.00
42147;DHT22;27815;43.410;11.852;2022-09-13T05:45:48;17.00;69.20
42147;DHT22;27815;43.410;11.852;2022-09-13T05:49:51;17.00;69.30
42147;DHT22;27815;43.410;11.852;2022-09-13T05:54:12;17.10;69.30
42147;DHT22;27815;43.410;11.852;2022-09-13T05:58:15;17.10;69.40
42147;DHT22;27815;43.410;11.852;2022-09-13T06:02:18;17.10;69.50
42147;DHT22;27815;43.410;11.852;2022-09-13T06:06:21;17.20;69.60
42147;DHT22;27815;43.410;11.852;2022-09-13T06:10:24;17.30;69.60
42147;DHT22;27815;43.410;11.852;2022-09-13T06:14:27;17.40;69.70
42147;DHT22;27815;43.410;11.852;2022-09-13T06:18:32;17.50;70.00
42147;DHT22;27815;43.410;11.852;2022-09-13T06:22:35;17.80;69.90
42147;DHT22;27815;43.410;11.852;2022-09-13T06:26:38;18.10;69.20
42147;DHT22;27815;43.410;11.852;2022-09-13T06:30:41;18.30;69.20
42147;DHT22;27815;43.410;11.852;2022-09-13T06:34:44;18.50;68.90
42147;DHT22;27815;43.410;11.852;2022-09-13T06:38:48;18.90;68.40
42147;DHT22;27815;43.410;11.852;2022-09-13T06:42:51;19.10;68.10
42147;DHT22;27815;43.410;11.852;2022-09-13T06:46:54;19.50;67.30
42147;DHT22;27815;43.410;11.852;2022-09-13T06:51:00;19.80;66.90
42147;DHT22;27815;43.410;11.852;2022-09-13T06:55:05;20.10;66.30
42147;DHT22;27815;43.410;11.852;2022-09-13T06:59:13;20.40;65.90
42147;DHT22;27815;43.410;11.852;2022-09-13T07:03:16;20.50;65.80
42147;DHT22;27815;43.410;11.852;2022-09-13T07:07:19;20.60;65.80
42147;DHT22;27815;43.410;11.852;2022-09-13T07:11:25;20.80;65.30
42147;DHT22;27815;43.410;11.852;2022-09-13T07:15:28;21.00;65.20
42147;DHT22;27815;43.410;11.852;2022-09-13T07:19:31;21.10;64.70
42147;DHT22;27815;43.410;11.852;2022-09-13T07:23:36;21.20;64.60
42147;DHT22;27815;43.410;11.852;2022-09-13T07:27:39;21.30;64.40
42147;DHT22;27815;43.410;11.852;2022-09-13T07:31:48;21.50;64.00
42147;DHT22;27815;43.410;11.852;2022-09-13T07:35:55;21.80;63.20
42147;DHT22;27815;43.410;11.852;2022-09-13T07:39:58;22.00;62.80
42147;DHT22;27815;43.410;11.852;2022-09-13T07:44:02;22.10;61.50
42147;DHT22;27815;43.410;11.852;2022-09-13T07:48:06;22.40;60.90
42147;DHT22;27815;43.410;11.852;2022-09-13T07:52:09;22.60;60.30
42147;DHT22;27815;43.410;11.852;2022-09-13T07:56:18;22.80;59.90
42147;DHT22;27815;43.410;11.852;2022-09-13T08:00:21;22.90;59.80
42147;DHT22;27815;43.410;11.852;2022-09-13T08:04:25;23.30;60.10
42147;DHT22;27815;43.410;11.852;2022-09-13T08:08:29;23.50;58.80
42147;DHT22;27815;43.410;11.852;2022-09-13T08:12:32;23.50;58.40
42147;DHT22;27815;43.410;11.852;2022-09-13T08:16:35;23.50;58.80
42147;DHT22;27815;43.410;11.852;2022-09-13T08:20:38;23.80;57.50
42147;DHT22;27815;43.410;11.852;2022-09-13T08:24:41;23.90;57.50
42147;DHT22;27815;43.410;11.852;2022-09-13T08:28:44;24.10;56.70
42147;DHT22;27815;43.410;11.852;2022-09-13T08:32:49;24.50;56.20
42147;DHT22;27815;43.410;11.852;2022-09-13T08:36:53;24.80;55.00
42147;DHT22;27815;43.410;11.852;2022-09-13T08:41:03;25.10;55.00
42147;DHT22;27815;43.410;11.852;2022-09-13T08:45:07;25.20;54.50
42147;DHT22;27815;43.410;11.852;2022-09-13T08:49:19;25.40;54.20
42147;DHT22;27815;43.410;11.852;2022-09-13T08:53:27;25.60;53.90
42147;DHT22;27815;43.410;11.852;2022-09-13T08:57:37;25.70;53.30
42147;DHT22;27815;43.410;11.852;2022-09-13T09:02:10;25.80;53.20
42147;DHT22;27815;43.410;11.852;2022-09-13T09:06:16;26.00;53.40
42147;DHT22;27815;43.410;11.852;2022-09-13T09:10:21;26.20;51.70
42147;DHT22;27815;43.410;11.852;2022-09-13T09:18:39;26.40;52.10
42147;DHT22;27815;43.410;11.852;2022-09-13T09:22:46;26.60;50.60
42147;DHT22;27815;43.410;11.852;2022-09-13T09:26:52;26.80;48.60
42147;DHT22;27815;43.410;11.852;2022-09-13T09:31:33;26.90;48.20
42147;DHT22;27815;43.410;11.852;2022-09-13T09:36:00;27.00;48.30
42147;DHT22;27815;43.410;11.852;2022-09-13T09:40:08;27.10;48.40
42147;DHT22;27815;43.410;11.852;2022-09-13T09:44:20;27.20;47.50
42147;DHT22;27815;43.410;11.852;2022-09-13T09:48:28;27.30;46.90
42147;DHT22;27815;43.410;11.852;2022-09-13T09:52:47;27.40;47.30
42147;DHT22;27815;43.410;11.852;2022-09-13T09:56:54;27.50;46.00
42147;DHT22;27815;43.410;11.852;2022-09-13T10:00:57;27.70;45.20
42147;DHT22;27815;43.410;11.852;2022-09-13T10:05:01;27.80;44.00
42147;DHT22;27815;43.410;11.852;2022-09-13T10:13:17;28.10;42.10
42147;DHT22;27815;43.410;11.852;2022-09-13T10:17:27;28.20;41.10
42147;DHT22;27815;43.410;11.852;2022-09-13T10:21:31;28.40;42.00
42147;DHT22;27815;43.410;11.852;2022-09-13T10:25:36;28.40;41.20
42147;DHT22;27815;43.410;11.852;2022-09-13T10:29:46;28.50;41.40
42147;DHT22;27815;43.410;11.852;2022-09-13T10:34:00;28.70;41.00
42147;DHT22;27815;43.410;11.852;2022-09-13T10:38:19;28.80;39.90
42147;DHT22;27815;43.410;11.852;2022-09-13T10:42:27;28.70;40.30
42147;DHT22;27815;43.410;11.852;2022-09-13T10:46:36;28.90;38.50
42147;DHT22;27815;43.410;11.852;2022-09-13T10:51:06;28.90;39.30
42147;DHT22;27815;43.410;11.852;2022-09-13T10:59:28;29.00;39.30
42147;DHT22;27815;43.410;11.852;2022-09-13T11:12:45;29.70;40.00
42147;DHT22;27815;43.410;11.852;2022-09-13T11:17:02;29.80;39.90
42147;DHT22;27815;43.410;11.852;2022-09-13T11:21:21;29.80;40.10
42147;DHT22;27815;43.410;11.852;2022-09-13T11:29:56;29.90;39.40
42147;DHT22;27815;43.410;11.852;2022-09-13T11:38:34;29.80;39.00
42147;DHT22;27815;43.410;11.852;2022-09-13T11:55:32;30.50;35.90
42147;DHT22;27815;43.410;11.852;2022-09-13T12:00:04;30.50;35.80
42147;DHT22;27815;43.410;11.852;2022-09-13T12:04:32;30.40;35.50
42147;DHT22;27815;43.410;11.852;2022-09-13T12:08:41;30.30;35.00
42147;DHT22;27815;43.410;11.852;2022-09-13T12:12:48;30.20;33.90
42147;DHT22;27815;43.410;11.852;2022-09-13T12:17:01;30.20;34.00
42147;DHT22;27815;43.410;11.852;2022-09-13T12:21:17;30.40;34.90
42147;DHT22;27815;43.410;11.852;2022-09-13T12:25:59;30.60;33.80
42147;DHT22;27815;43.410;11.852;2022-09-13T12:34:25;30.80;33.20
42147;DHT22;27815;43.410;11.852;2022-09-13T12:42:52;30.70;32.70
42147;DHT22;27815;43.410;11.852;2022-09-13T13:00:32;30.80;31.90
42147;DHT22;27815;43.410;11.852;2022-09-13T13:04:36;30.90;32.60
42147;DHT22;27815;43.410;11.852;2022-09-13T13:08:49;31.20;32.40
42147;DHT22;27815;43.410;11.852;2022-09-13T13:12:53;31.40;32.10
42147;DHT22;27815;43.410;11.852;2022-09-13T13:21:44;31.40;32.20
42147;DHT22;27815;43.410;11.852;2022-09-13T13:26:03;31.50;31.50
42147;DHT22;27815;43.410;11.852;2022-09-13T13:34:55;31.60;32.30
42147;DHT22;27815;43.410;11.852;2022-09-13T13:43:31;31.30;31.30
42147;DHT22;27815;43.410;11.852;2022-09-13T13:51:41;31.20;31.00
42147;DHT22;27815;43.410;11.852;2022-09-13T13:55:45;31.20;31.80
42147;DHT22;27815;43.410;11.852;2022-09-13T13:59:49;31.30;30.70
42147;DHT22;27815;43.410;11.852;2022-09-13T14:21:35;31.40;32.70
42147;DHT22;27815;43.410;11.852;2022-09-13T14:25:38;31.40;32.70
42147;DHT22;27815;43.410;11.852;2022-09-13T14:29:44;31.40;33.10
42147;DHT22;27815;43.410;11.852;2022-09-13T14:33:47;31.50;33.50
42147;DHT22;27815;43.410;11.852;2022-09-13T14:37:50;31.50;33.90
42147;DHT22;27815;43.410;11.852;2022-09-13T14:42:06;31.60;33.80
42147;DHT22;27815;43.410;11.852;2022-09-13T14:46:24;31.60;34.40
42147;DHT22;27815;43.410;11.852;2022-09-13T14:50:33;31.80;34.70
42147;DHT22;27815;43.410;11.852;2022-09-13T14:54:45;31.70;34.70
42147;DHT22;27815;43.410;11.852;2022-09-13T14:58:58;31.60;34.70
42147;DHT22;27815;43.410;11.852;2022-09-13T15:03:09;31.60;34.90
42147;DHT22;27815;43.410;11.852;2022-09-13T15:07:36;31.50;35.40
42147;DHT22;27815;43.410;11.852;2022-09-13T15:11:56;31.50;35.50
42147;DHT22;27815;43.410;11.852;2022-09-13T15:16:00;31.50;35.90
42147;DHT22;27815;43.410;11.852;2022-09-13T15:20:10;31.50;36.30
42147;DHT22;27815;43.410;11.852;2022-09-13T15:24:24;31.70;36.30
42147;DHT22;27815;43.410;11.852;2022-09-13T15:32:43;31.60;36.70
42147;DHT22;27815;43.410;11.852;2022-09-13T15:36:48;31.60;37.10
42147;DHT22;27815;43.410;11.852;2022-09-13T15:45:13;31.50;37.30
42147;DHT22;27815;43.410;11.852;2022-09-13T15:49:21;31.50;37.70
42147;DHT22;27815;43.410;11.852;2022-09-13T15:53:24;31.50;37.60
42147;DHT22;27815;43.410;11.852;2022-09-13T15:57:28;31.50;37.30
42147;DHT22;27815;43.410;11.852;2022-09-13T16:01:31;31.50;37.40
42147;DHT22;27815;43.410;11.852;2022-09-13T16:05:35;31.70;37.50
42147;DHT22;27815;43.410;11.852;2022-09-13T16:09:38;31.90;37.60
42147;DHT22;27815;43.410;11.852;2022-09-13T16:13:41;32.00;37.30
42147;DHT22;27815;43.410;11.852;2022-09-13T16:17:44;32.00;37.00
42147;DHT22;27815;43.410;11.852;2022-09-13T16:21:48;31.90;37.90
42147;DHT22;27815;43.410;11.852;2022-09-13T16:25:54;31.80;38.20
42147;DHT22;27815;43.410;11.852;2022-09-13T16:29:58;31.90;38.50
42147;DHT22;27815;43.410;11.852;2022-09-13T16:34:01;32.10;38.30
42147;DHT22;27815;43.410;11.852;2022-09-13T16:38:04;32.60;37.90
42147;DHT22;27815;43.410;11.852;2022-09-13T16:42:07;32.90;37.40
42147;DHT22;27815;43.410;11.852;2022-09-13T16:46:12;32.80;37.80
42147;DHT22;27815;43.410;11.852;2022-09-13T16:50:17;32.60;37.70
42147;DHT22;27815;43.410;11.852;2022-09-13T16:54:21;32.40;37.80
42147;DHT22;27815;43.410;11.852;2022-09-13T16:58:24;31.80;38.80
42147;DHT22;27815;43.410;11.852;2022-09-13T17:02:27;31.30;39.40
42147;DHT22;27815;43.410;11.852;2022-09-13T17:06:30;30.70;40.10
42147;DHT22;27815;43.410;11.852;2022-09-13T17:10:36;30.30;41.10
42147;DHT22;27815;43.410;11.852;2022-09-13T17:14:41;29.90;41.90
42147;DHT22;27815;43.410;11.852;2022-09-13T17:18:44;29.60;42.70
42147;DHT22;27815;43.410;11.852;2022-09-13T17:22:47;29.30;43.40
42147;DHT22;27815;43.410;11.852;2022-09-13T17:26:49;29.00;43.90
42147;DHT22;27815;43.410;11.852;2022-09-13T17:30:53;28.80;44.50
42147;DHT22;27815;43.410;11.852;2022-09-13T17:34:56;28.50;45.00
42147;DHT22;27815;43.410;11.852;2022-09-13T17:38:59;28.30;45.60
42147;DHT22;27815;43.410;11.852;2022-09-13T17:43:02;28.10;46.10
42147;DHT22;27815;43.410;11.852;2022-09-13T17:47:05;27.90;46.50
42147;DHT22;27815;43.410;11.852;2022-09-13T17:51:10;27.70;47.10
42147;DHT22;27815;43.410;11.852;2022-09-13T17:55:14;27.60;47.60
42147;DHT22;27815;43.410;11.852;2022-09-13T17:59:21;27.40;48.50
42147;DHT22;27815;43.410;11.852;2022-09-13T18:03:23;27.20;48.90
42147;DHT22;27815;43.410;11.852;2022-09-13T18:07:26;27.00;49.70
42147;DHT22;27815;43.410;11.852;2022-09-13T18:11:29;26.90;50.10
42147;DHT22;27815;43.410;11.852;2022-09-13T18:15:32;26.90;50.50
42147;DHT22;27815;43.410;11.852;2022-09-13T18:19:35;26.70;51.00
42147;DHT22;27815;43.410;11.852;2022-09-13T18:23:49;26.60;51.30
42147;DHT22;27815;43.410;11.852;2022-09-13T18:27:52;26.60;51.50
42147;DHT22;27815;43.410;11.852;2022-09-13T18:31:55;26.50;51.90
42147;DHT22;27815;43.410;11.852;2022-09-13T18:36:09;26.40;52.50
42147;DHT22;27815;43.410;11.852;2022-09-13T18:40:13;26.30;53.00
42147;DHT22;27815;43.410;11.852;2022-09-13T18:44:17;26.20;53.40
42147;DHT22;27815;43.410;11.852;2022-09-13T18:48:20;26.10;53.50
42147;DHT22;27815;43.410;11.852;2022-09-13T18:52:23;26.10;53.90
42147;DHT22;27815;43.410;11.852;2022-09-13T18:56:27;26.00;54.20
42147;DHT22;27815;43.410;11.852;2022-09-13T19:00:31;26.00;54.40
42147;DHT22;27815;43.410;11.852;2022-09-13T19:04:34;25.90;54.90
42147;DHT22;27815;43.410;11.852;2022-09-13T19:08:39;25.80;55.30
42147;DHT22;27815;43.410;11.852;2022-09-13T19:12:42;25.70;55.50
42147;DHT22;27815;43.410;11.852;2022-09-13T19:16:45;25.70;55.40
42147;DHT22;27815;43.410;11.852;2022-09-13T19:20:50;25.70;55.70
42147;DHT22;27815;43.410;11.852;2022-09-13T19:24:54;25.60;55.70
42147;DHT22;27815;43.410;11.852;2022-09-13T19:29:01;25.50;56.00
42147;DHT22;27815;43.410;11.852;2022-09-13T19:33:06;25.50;56.50
42147;DHT22;27815;43.410;11.852;2022-09-13T19:37:09;25.40;56.50
42147;DHT22;27815;43.410;11.852;2022-09-13T19:41:15;25.20;56.80
42147;DHT22;27815;43.410;11.852;2022-09-13T19:45:19;25.20;56.90
42147;DHT22;27815;43.410;11.852;2022-09-13T19:49:24;25.10;57.00
42147;DHT22;27815;43.410;11.852;2022-09-13T19:53:27;25.10;57.10
42147;DHT22;27815;43.410;11.852;2022-09-13T19:57:49;25.10;57.10
42147;DHT22;27815;43.410;11.852;2022-09-13T20:01:53;25.00;57.20
42147;DHT22;27815;43.410;11.852;2022-09-13T20:06:05;25.00;57.20
42147;DHT22;27815;43.410;11.852;2022-09-13T20:10:08;24.90;57.10
42147;DHT22;27815;43.410;11.852;2022-09-13T20:14:14;24.90;57.50
42147;DHT22;27815;43.410;11.852;2022-09-13T20:18:17;24.90;57.60
42147;DHT22;27815;43.410;11.852;2022-09-13T20:22:20;24.80;57.30
42147;DHT22;27815;43.410;11.852;2022-09-13T20:26:24;24.80;57.60
42147;DHT22;27815;43.410;11.852;2022-09-13T20:30:27;24.80;57.50
42147;DHT22;27815;43.410;11.852;2022-09-13T20:34:30;24.80;58.00
42147;DHT22;27815;43.410;11.852;2022-09-13T20:38:33;24.70;58.00
42147;DHT22;27815;43.410;11.852;2022-09-13T20:42:36;24.60;58.10
42147;DHT22;27815;43.410;11.852;2022-09-13T20:46:39;24.50;58.30
42147;DHT22;27815;43.410;11.852;2022-09-13T20:50:42;24.40;58.90
42147;DHT22;27815;43.410;11.852;2022-09-13T20:54:46;24.20;59.40
42147;DHT22;27815;43.410;11.852;2022-09-13T20:58:54;24.10;59.70
42147;DHT22;27815;43.410;11.852;2022-09-13T21:02:59;24.00;60.30
42147;DHT22;27815;43.410;11.852;2022-09-13T21:07:03;24.00;60.70
42147;DHT22;27815;43.410;11.852;2022-09-13T21:11:26;24.00;60.80
42147;DHT22;27815;43.410;11.852;2022-09-13T21:15:34;23.90;61.10
42147;DHT22;27815;43.410;11.852;2022-09-13T21:19:40;23.90;61.00
42147;DHT22;27815;43.410;11.852;2022-09-13T21:23:43;23.80;61.40
42147;DHT22;27815;43.410;11.852;2022-09-13T21:27:46;23.80;61.70
42147;DHT22;27815;43.410;11.852;2022-09-13T21:31:49;23.70;62.10
42147;DHT22;27815;43.410;11.852;2022-09-13T21:35:56;23.60;62.30
42147;DHT22;27815;43.410;11.852;2022-09-13T21:39:59;23.60;62.50
42147;DHT22;27815;43.410;11.852;2022-09-13T21:44:02;23.50;62.60
42147;DHT22;27815;43.410;11.852;2022-09-13T21:48:05;23.50;62.50
42147;DHT22;27815;43.410;11.852;2022-09-13T21:52:08;23.50;62.60
42147;DHT22;27815;43.410;11.852;2022-09-13T21:56:14;23.50;62.70
42147;DHT22;27815;43.410;11.852;2022-09-13T22:00:17;23.40;62.80
42147;DHT22;27815;43.410;11.852;2022-09-13T22:04:22;23.30;62.80
42147;DHT22;27815;43.410;11.852;2022-09-13T22:08:29;23.30;63.10
42147;DHT22;27815;43.410;11.852;2022-09-13T22:12:33;23.10;63.40
42147;DHT22;27815;43.410;11.852;2022-09-13T22:16:37;22.90;63.00
42147;DHT22;27815;43.410;11.852;2022-09-13T22:20:42;22.90;65.00
42147;DHT22;27815;43.410;11.852;2022-09-13T22:24:45;22.90;65.30
42147;DHT22;27815;43.410;11.852;2022-09-13T22:28:49;22.90;65.90
42147;DHT22;27815;43.410;11.852;2022-09-13T22:32:52;22.90;66.40
42147;DHT22;27815;43.410;11.852;2022-09-13T22:36:56;22.90;66.70
42147;DHT22;27815;43.410;11.852;2022-09-13T22:41:03;22.90;66.90
42147;DHT22;27815;43.410;11.852;2022-09-13T22:45:07;22.90;67.20
42147;DHT22;27815;43.410;11.852;2022-09-13T22:49:13;22.90;67.60
42147;DHT22;27815;43.410;11.852;2022-09-13T22:53:16;22.90;67.70
42147;DHT22;27815;43.410;11.852;2022-09-13T22:57:19;22.90;68.00
42147;DHT22;27815;43.410;11.852;2022-09-13T23:01:23;22.90;68.40
42147;DHT22;27815;43.410;11.852;2022-09-13T23:05:26;22.90;68.40
42147;DHT22;27815;43.410;11.852;2022-09-13T23:09:30;22.80;68.70
42147;DHT22;27815;43.410;11.852;2022-09-13T23:13:33;22.80;68.90
42147;DHT22;27815;43.410;11.852;2022-09-13T23:17:36;22.80;69.20
42147;DHT22;27815;43.410;11.852;2022-09-13T23:21:40;22.80;69.30
42147;DHT22;27815;43.410;11.852;2022-09-13T23:25:44;22.70;69.70
42147;DHT22;27815;43.410;11.852;2022-09-13T23:29:48;22.70;69.80
42147;DHT22;27815;43.410;11.852;2022-09-13T23:33:56;22.70;70.20
42147;DHT22;27815;43.410;11.852;2022-09-13T23:37:59;22.70;70.10
42147;DHT22;27815;43.410;11.852;2022-09-13T23:42:02;22.70;70.10
42147;DHT22;27815;43.410;11.852;2022-09-13T23:46:06;22.70;70.40
42147;DHT22;27815;43.410;11.852;2022-09-13T23:50:09;22.70;70.30
42147;DHT22;27815;43.410;11.852;2022-09-13T23:54:12;22.70;70.20
42147;DHT22;27815;43.410;11.852;2022-09-13T23:58:18;22.70;70.00
